createdAt,value
2016-02-27T15:52:34.706Z,31.8
2016-02-27T15:53:34.787Z,31.51
2016-02-27T15:54:34.758Z,31.61
2016-02-27T15:55:34.731Z,31.72
2016-02-27T15:56:34.717Z,31.72
2016-02-27T15:57:34.688Z,31.53
2016-02-27T15:58:34.675Z,31.43
2016-02-27T15:59:34.647Z,31.62
2016-02-27T16:00:34.618Z,31.62
2016-02-27T16:01:34.605Z,31.62
2016-02-27T16:02:34.593Z,31.53
2016-02-27T16:03:34.563Z,31.62
2016-02-27T16:04:34.551Z,31.62
2016-02-27T16:05:34.522Z,31.72
2016-02-27T16:06:34.510Z,31.62
2016-02-27T16:07:34.481Z,31.82
2016-02-27T16:08:34.468Z,31.92
2016-02-27T16:09:34.455Z,31.82
2016-02-27T16:10:34.426Z,32.01
2016-02-27T16:11:34.399Z,32.01
2016-02-27T16:12:34.385Z,32.1
2016-02-27T16:13:34.356Z,32.12
2016-02-27T16:14:34.343Z,32.1
2016-02-27T16:15:34.331Z,32.59
2016-02-27T16:16:34.318Z,32.39
2016-02-27T16:17:34.290Z,32.39
2016-02-27T16:18:34.276Z,32.59
2016-02-27T16:19:34.248Z,32.59
2016-02-27T16:20:34.234Z,32.49
2016-02-27T16:21:34.206Z,32.59
2016-02-27T16:22:34.193Z,32.87
2016-02-27T16:23:34.211Z,32.87
2016-02-27T16:24:34.167Z,32.89
2016-02-27T16:25:34.186Z,32.87
2016-02-27T16:26:34.126Z,32.87
2016-02-27T16:27:34.128Z,32.78
2016-02-27T16:28:34.084Z,32.68
2016-02-27T16:29:34.071Z,32.78
2016-02-27T16:30:34.044Z,33.26
2016-02-27T16:31:34.030Z,33.26
2016-02-27T16:32:34.017Z,33.16
2016-02-27T16:33:34.004Z,33.16
2016-02-27T16:34:33.991Z,33.45
2016-02-27T16:35:33.962Z,33.16
2016-02-27T16:36:33.949Z,33.18
2016-02-27T16:37:33.922Z,33.26
2016-02-27T16:38:33.924Z,32.97
2016-02-27T16:39:33.896Z,33.26
2016-02-27T16:40:33.866Z,33.36
2016-02-27T16:41:33.854Z,33.36
2016-02-27T16:42:33.840Z,33.36
2016-02-27T16:43:33.813Z,33.36
2016-02-27T16:44:33.862Z,33.36
2016-02-27T16:45:33.787Z,33.64
2016-02-27T16:46:33.773Z,33.18
2016-02-27T16:47:33.745Z,33.45
2016-02-27T16:48:33.732Z,33.64
2016-02-27T16:49:33.720Z,33.36
2016-02-27T16:50:33.706Z,33.75
2016-02-27T16:51:33.678Z,33.54
2016-02-27T16:52:33.648Z,33.74
2016-02-27T16:53:33.636Z,33.54
2016-02-27T16:54:33.639Z,33.84
2016-02-27T16:55:33.611Z,33.95
2016-02-27T16:56:33.613Z,33.84
2016-02-27T16:57:33.569Z,33.74
2016-02-27T16:58:33.555Z,33.93
2016-02-27T16:59:33.542Z,33.84
2016-02-27T17:00:33.530Z,33.54
2016-02-27T17:01:33.486Z,34.03
2016-02-27T17:02:33.489Z,33.84
2016-02-27T17:03:33.476Z,33.64
2016-02-27T17:04:33.447Z,33.84
2016-02-27T17:05:33.419Z,34.03
2016-02-27T17:06:33.405Z,34.03
2016-02-27T17:07:33.392Z,34.31
2016-02-27T17:08:33.379Z,34.31
2016-02-27T17:09:33.351Z,34.31
2016-02-27T17:10:33.338Z,34.31
2016-02-27T17:11:33.325Z,34.12
2016-02-27T17:12:33.296Z,34.12
2016-02-27T17:13:33.299Z,34.12
2016-02-27T17:14:33.254Z,34.12
2016-02-27T17:15:33.257Z,34.12
2016-02-27T17:16:33.246Z,34.03
2016-02-27T17:17:33.216Z,34.03
2016-02-27T17:18:33.204Z,34.03
2016-02-27T17:19:33.175Z,33.93
2016-02-27T17:20:33.162Z,34.03
2016-02-27T17:21:33.149Z,33.95
2016-02-27T17:22:33.121Z,34.03
2016-02-27T17:23:33.123Z,34.12
2016-02-27T17:24:33.094Z,34.03
2016-02-27T17:25:33.066Z,34.03
2016-02-27T17:26:33.069Z,34.12
2016-02-27T17:27:33.039Z,34.03
2016-02-27T17:28:33.027Z,34.12
2016-02-27T17:29:33.015Z,34.22
2016-02-27T17:30:32.986Z,34.12
2016-02-27T17:31:32.973Z,34.41
2016-02-27T17:32:32.944Z,34.12
2016-02-27T17:33:32.947Z,34.12
2016-02-27T17:34:32.902Z,34.12
2016-02-27T17:35:32.905Z,34.22
2016-02-27T17:36:32.877Z,34.53
2016-02-27T17:37:32.880Z,34.31
2016-02-27T17:38:32.835Z,34.41
2016-02-27T17:39:32.838Z,34.31
2016-02-27T17:40:32.809Z,34.41
2016-02-27T17:41:32.796Z,34.41
2016-02-27T17:42:32.783Z,34.41
2016-02-27T17:43:32.771Z,34.61
2016-02-27T17:44:32.743Z,34.51
2016-02-27T17:45:32.729Z,34.61
2016-02-27T17:46:32.716Z,34.51
2016-02-27T17:47:32.687Z,34.61
2016-02-27T17:48:32.659Z,34.43
2016-02-27T17:49:32.646Z,34.41
2016-02-27T17:50:32.634Z,34.31
2016-02-27T17:51:32.620Z,34.43
2016-02-27T17:52:32.592Z,34.61
2016-02-27T17:53:32.594Z,34.43
2016-02-27T17:54:32.565Z,34.7
2016-02-27T17:55:32.537Z,34.41
2016-02-27T17:56:32.525Z,34.7
2016-02-27T17:57:32.512Z,34.7
2016-02-27T17:58:32.498Z,34.61
2016-02-27T17:59:32.470Z,34.51
2016-02-27T18:00:32.472Z,34.62
2016-02-27T18:01:32.444Z,34.61
2016-02-27T18:02:32.415Z,34.7
2016-02-27T18:03:32.418Z,34.51
2016-02-27T18:04:32.390Z,34.61
2016-02-27T18:05:32.377Z,34.51
2016-02-27T18:06:32.379Z,34.8
2016-02-27T18:07:32.335Z,34.89
2016-02-27T18:08:32.307Z,34.51
2016-02-27T18:09:32.294Z,34.61
2016-02-27T18:10:32.281Z,34.8
2016-02-27T18:11:32.268Z,34.8
2016-02-27T18:12:32.271Z,34.89
2016-02-27T18:13:32.242Z,34.8
2016-02-27T18:14:32.213Z,34.61
2016-02-27T18:15:32.200Z,34.8
2016-02-27T18:16:32.188Z,34.7
2016-02-27T18:17:32.159Z,34.7
2016-02-27T18:18:32.146Z,34.7
2016-02-27T18:19:32.117Z,34.89
2016-02-27T18:20:32.121Z,34.7
2016-02-27T18:21:32.092Z,34.89
2016-02-27T18:22:32.079Z,34.89
2016-02-27T18:23:32.050Z,34.89
2016-02-27T18:24:32.053Z,35.08
2016-02-27T18:25:32.009Z,34.8
2016-02-27T18:26:32.011Z,34.8
2016-02-27T18:27:31.983Z,34.89
2016-02-27T18:28:31.970Z,34.8
2016-02-27T18:29:31.942Z,34.89
2016-02-27T18:30:31.944Z,34.89
2016-02-27T18:31:31.915Z,34.89
2016-02-27T18:32:31.886Z,34.8
2016-02-27T18:33:31.889Z,34.99
2016-02-27T18:34:31.861Z,34.89
2016-02-27T18:35:31.847Z,34.7
2016-02-27T18:36:31.820Z,34.99
2016-02-27T18:37:31.806Z,34.99
2016-02-27T18:38:31.778Z,34.99
2016-02-27T18:39:31.765Z,34.99
2016-02-27T18:40:31.768Z,34.89
2016-02-27T18:41:31.723Z,34.99
2016-02-27T18:42:31.789Z,35.28
2016-02-27T18:43:31.713Z,35.28
2016-02-27T18:44:31.700Z,35.08
2016-02-27T18:45:31.688Z,34.99
2016-02-27T18:46:31.643Z,35.08
2016-02-27T18:47:31.630Z,35.57
2016-02-27T18:48:31.617Z,35.57
2016-02-27T18:49:31.604Z,35.57
2016-02-27T18:50:31.576Z,35.57
2016-02-27T18:51:31.563Z,35.57
2016-02-27T18:52:31.534Z,35.57
2016-02-27T18:53:31.521Z,35.47
2016-02-27T18:54:31.508Z,35.57
2016-02-27T18:55:31.496Z,35.47
2016-02-27T18:56:31.467Z,35.57
2016-02-27T18:57:31.454Z,35.47
2016-02-27T18:58:31.457Z,35.57
2016-02-27T18:59:31.429Z,35.66
2016-02-27T19:00:31.400Z,35.47
2016-02-27T19:01:31.402Z,35.47
2016-02-27T19:02:31.373Z,35.47
2016-02-27T19:03:31.345Z,35.57
2016-02-27T19:04:31.333Z,35.66
2016-02-27T19:05:31.320Z,35.57
2016-02-27T19:06:31.306Z,35.66
2016-02-27T19:07:31.277Z,35.66
2016-02-27T19:08:31.265Z,35.57
2016-02-27T19:09:31.250Z,35.57
2016-02-27T19:10:31.237Z,35.47
2016-02-27T19:11:31.209Z,35.38
2016-02-27T19:12:31.180Z,35.38
2016-02-27T19:13:31.011Z,35.47
2016-02-27T19:14:31.154Z,35.47
2016-02-27T19:15:31.141Z,35.47
2016-02-27T19:16:31.112Z,35.38
2016-02-27T19:17:31.100Z,35.28
2016-02-27T19:18:31.086Z,35.47
2016-02-27T19:19:31.074Z,35.38
2016-02-27T19:20:31.045Z,35.47
2016-02-27T19:21:31.032Z,35.38
2016-02-27T19:22:31.019Z,35.38
2016-02-27T19:23:30.991Z,35.38
2016-02-27T19:24:30.978Z,35.28
2016-02-27T19:25:30.949Z,35.28
2016-02-27T19:26:30.952Z,35.28
2016-02-27T19:27:30.923Z,35.18
2016-02-27T19:28:30.910Z,35.38
2016-02-27T19:29:30.897Z,35.57
2016-02-27T19:30:30.869Z,35.38
2016-02-27T19:31:30.857Z,35.57
2016-02-27T19:32:30.828Z,35.57
2016-02-27T19:33:30.830Z,35.47
2016-02-27T19:34:30.801Z,35.57
2016-02-27T19:35:30.773Z,35.47
2016-02-27T19:36:30.760Z,35.47
2016-02-27T19:37:30.763Z,35.57
2016-02-27T19:38:30.719Z,35.66
2016-02-27T19:39:30.706Z,35.38
2016-02-27T19:40:30.708Z,35.47
2016-02-27T19:41:30.695Z,35.47
2016-02-27T19:42:30.667Z,35.57
2016-02-27T19:43:30.638Z,35.47
2016-02-27T19:44:30.625Z,35.47
2016-02-27T19:45:30.597Z,35.66
2016-02-27T19:46:30.581Z,35.66
2016-02-27T19:47:30.569Z,35.57
2016-02-27T19:48:30.555Z,35.57
2016-02-27T19:49:30.527Z,35.57
2016-02-27T19:50:30.513Z,35.66
2016-02-27T19:51:30.485Z,35.57
2016-02-27T19:52:30.488Z,35.66
2016-02-27T19:53:30.460Z,35.47
2016-02-27T19:54:30.290Z,35.47
2016-02-27T19:55:30.433Z,35.47
2016-02-27T19:56:30.404Z,35.66
2016-02-27T19:57:30.392Z,35.66
2016-02-27T19:58:30.379Z,35.57
2016-02-27T19:59:30.366Z,35.57
2016-02-27T20:00:30.353Z,35.57
2016-02-27T20:01:30.324Z,35.66
2016-02-27T20:02:30.312Z,35.38
2016-02-27T20:03:30.299Z,35.38
2016-02-27T20:04:30.098Z,35.47
2016-02-27T20:05:30.242Z,35.66
2016-02-27T20:06:30.229Z,35.85
2016-02-27T20:07:30.215Z,35.47
2016-02-27T20:08:30.187Z,35.76
2016-02-27T20:09:30.174Z,35.57
2016-02-27T20:10:30.162Z,35.85
2016-02-27T20:11:30.133Z,35.85
2016-02-27T20:12:30.120Z,35.76
2016-02-27T20:13:30.106Z,35.57
2016-02-27T20:14:30.094Z,35.57
2016-02-27T20:15:30.066Z,35.57
2016-02-27T20:16:30.053Z,35.47
2016-02-27T20:17:30.040Z,35.76
2016-02-27T20:18:30.011Z,35.95
2016-02-27T20:19:30.014Z,35.66
2016-02-27T20:20:29.985Z,35.57
2016-02-27T20:21:29.957Z,35.85
2016-02-27T20:22:29.943Z,35.85
2016-02-27T20:23:29.930Z,35.85
2016-02-27T20:24:29.918Z,35.76
2016-02-27T20:25:29.905Z,35.95
2016-02-27T20:26:29.876Z,35.76
2016-02-27T20:27:29.863Z,35.76
2016-02-27T20:28:29.851Z,35.76
2016-02-27T20:29:29.822Z,35.85
2016-02-27T20:30:29.809Z,35.76
2016-02-27T20:31:29.780Z,35.95
2016-02-27T20:32:29.768Z,35.85
2016-02-27T20:33:29.754Z,35.85
2016-02-27T20:34:29.742Z,35.76
2016-02-27T20:35:29.713Z,35.76
2016-02-27T20:36:29.701Z,36.05
2016-02-27T20:37:29.687Z,35.85
2016-02-27T20:38:29.659Z,35.95
2016-02-27T20:39:29.645Z,35.66
2016-02-27T20:40:29.633Z,36.15
2016-02-27T20:41:29.604Z,35.76
2016-02-27T20:42:29.592Z,35.85
2016-02-27T20:43:29.578Z,35.76
2016-02-27T20:44:29.549Z,35.66
2016-02-27T20:45:29.552Z,35.95
2016-02-27T20:46:29.525Z,35.85
2016-02-27T20:47:29.511Z,35.76
2016-02-27T20:48:29.498Z,35.76
2016-02-27T20:49:29.469Z,35.85
2016-02-27T20:50:29.456Z,35.76
2016-02-27T20:51:29.428Z,36.05
2016-02-27T20:52:29.415Z,36.05
2016-02-27T20:53:29.402Z,35.95
2016-02-27T20:54:29.389Z,35.76
2016-02-27T20:55:29.361Z,35.85
2016-02-27T20:56:29.347Z,35.85
2016-02-27T20:57:29.319Z,35.95
2016-02-27T20:58:29.306Z,35.85
2016-02-27T20:59:29.293Z,35.76
2016-02-27T21:00:29.280Z,35.95
2016-02-27T21:01:29.252Z,35.76
2016-02-27T21:02:29.238Z,35.76
2016-02-27T21:03:29.226Z,35.76
2016-02-27T21:04:29.212Z,35.85
2016-02-27T21:05:29.200Z,35.76
2016-02-27T21:06:29.172Z,35.76
2016-02-27T21:07:29.143Z,35.95
2016-02-27T21:08:29.146Z,35.85
2016-02-27T21:09:29.118Z,35.85
2016-02-27T21:10:29.089Z,35.76
2016-02-27T21:11:29.092Z,35.66
2016-02-27T21:12:29.066Z,35.95
2016-02-27T21:13:29.054Z,35.76
2016-02-27T21:14:29.040Z,35.76
2016-02-27T21:15:29.012Z,36.05
2016-02-27T21:16:28.983Z,35.95
2016-02-27T21:17:28.970Z,35.76
2016-02-27T21:18:28.957Z,35.95
2016-02-27T21:19:28.929Z,36.05
2016-02-27T21:20:28.916Z,36.15
2016-02-27T21:21:28.904Z,35.76
2016-02-27T21:22:28.875Z,35.95
2016-02-27T21:23:28.877Z,35.85
2016-02-27T21:24:28.848Z,36.05
2016-02-27T21:25:28.836Z,36.05
2016-02-27T21:26:28.807Z,35.95
2016-02-27T21:27:28.810Z,36.05
2016-02-27T21:28:28.781Z,35.95
2016-02-27T21:29:28.815Z,36.15
2016-02-27T21:30:28.739Z,36.15
2016-02-27T21:31:28.727Z,36.05
2016-02-27T21:32:28.698Z,35.95
2016-02-27T21:33:28.686Z,36.24
2016-02-27T21:34:28.673Z,36.15
2016-02-27T21:35:28.659Z,36.15
2016-02-27T21:36:28.646Z,36.15
2016-02-27T21:37:28.618Z,36.24
2016-02-27T21:38:28.589Z,36.33
2016-02-27T21:39:28.592Z,36.15
2016-02-27T21:40:28.564Z,36.05
2016-02-27T21:41:28.550Z,36.15
2016-02-27T21:42:28.522Z,36.43
2016-02-27T21:43:28.524Z,36.24
2016-02-27T21:44:28.496Z,36.15
2016-02-27T21:45:28.468Z,36.33
2016-02-27T21:46:28.454Z,35.95
2016-02-27T21:47:28.442Z,36.24
2016-02-27T21:48:28.429Z,36.24
2016-02-27T21:49:28.416Z,36.15
2016-02-27T21:50:28.387Z,36.05
2016-02-27T21:51:28.468Z,36.15
2016-02-27T21:52:28.346Z,36.15
2016-02-27T21:53:28.333Z,36.15
2016-02-27T21:54:28.320Z,36.15
2016-02-27T21:55:28.292Z,36.15
2016-02-27T21:56:28.278Z,36.05
2016-02-27T21:57:28.265Z,36.15
2016-02-27T21:58:28.237Z,36.24
2016-02-27T21:59:28.224Z,36.15
2016-02-27T22:00:28.211Z,36.33
2016-02-27T22:01:28.183Z,36.05
2016-02-27T22:02:28.169Z,36.05
2016-02-27T22:03:28.157Z,36.24
2016-02-27T22:04:28.128Z,35.95
2016-02-27T22:05:28.115Z,35.95
2016-02-27T22:06:28.103Z,36.24
2016-02-27T22:07:28.089Z,36.15
2016-02-27T22:08:28.061Z,36.24
2016-02-27T22:09:28.047Z,36.24
2016-02-27T22:10:28.035Z,36.15
2016-02-27T22:11:28.006Z,35.95
2016-02-27T22:12:27.993Z,36.05
2016-02-27T22:13:27.980Z,36.15
2016-02-27T22:14:27.968Z,35.95
2016-02-27T22:15:27.938Z,35.95
2016-02-27T22:16:27.927Z,36.15
2016-02-27T22:17:27.913Z,36.15
2016-02-27T22:18:27.885Z,36.15
2016-02-27T22:19:27.872Z,36.15
2016-02-27T22:20:27.843Z,36.24
2016-02-27T22:21:27.846Z,36.15
2016-02-27T22:22:27.864Z,36.05
2016-02-27T22:23:27.804Z,35.95
2016-02-27T22:24:27.776Z,35.95
2016-02-27T22:25:27.779Z,35.95
2016-02-27T22:26:27.750Z,36.24
2016-02-27T22:27:27.737Z,36.24
2016-02-27T22:28:27.708Z,35.95
2016-02-27T22:29:27.696Z,36.15
2016-02-27T22:30:27.682Z,36.24
2016-02-27T22:31:27.685Z,36.24
2016-02-27T22:32:27.673Z,36.43
2016-02-27T22:33:27.612Z,36.24
2016-02-27T22:34:27.662Z,36.05
2016-02-27T22:35:27.587Z,36.15
2016-02-27T22:36:27.573Z,36.05
2016-02-27T22:37:27.545Z,35.95
2016-02-27T22:38:27.533Z,36.24
2016-02-27T22:39:27.503Z,36.43
2016-02-27T22:40:27.506Z,36.05
2016-02-27T22:41:27.477Z,36.24
2016-02-27T22:42:27.457Z,36.43
2016-02-27T22:43:27.430Z,36.33
2016-02-27T22:44:27.402Z,36.33
2016-02-27T22:45:27.359Z,36.33
2016-02-27T22:46:27.316Z,36.33
2016-02-27T22:47:27.293Z,36.43
2016-02-27T22:48:27.260Z,36.15
2016-02-27T22:49:27.257Z,36.43
2016-02-27T22:50:27.223Z,36.43
2016-02-27T22:51:27.204Z,36.24
2016-02-27T22:52:27.188Z,36.43
2016-02-27T22:53:27.157Z,36.43
2016-02-27T22:54:27.142Z,36.53
2016-02-27T22:55:27.128Z,36.24
2016-02-27T22:56:27.098Z,36.43
2016-02-27T22:57:27.083Z,36.43
2016-02-27T22:58:27.069Z,36.43
2016-02-27T22:59:27.041Z,36.24
2016-02-27T23:00:27.043Z,36.33
2016-02-27T23:01:27.030Z,36.33
2016-02-27T23:02:27.001Z,36.53
2016-02-27T23:03:26.972Z,36.24
2016-02-27T23:04:26.958Z,36.33
2016-02-27T23:05:26.929Z,36.43
2016-02-27T23:06:26.916Z,36.43
2016-02-27T23:07:26.903Z,36.33
2016-02-27T23:08:26.875Z,36.33
2016-02-27T23:09:26.862Z,36.53
2016-02-27T23:10:26.849Z,36.24
2016-02-27T23:11:26.836Z,36.43
2016-02-27T23:12:26.839Z,36.33
2016-02-27T23:13:26.794Z,36.24
2016-02-27T23:14:26.766Z,36.33
2016-02-27T23:15:26.753Z,36.24
2016-02-27T23:16:26.740Z,36.24
2016-02-27T23:17:26.727Z,36.53
2016-02-27T23:18:26.698Z,36.53
2016-02-27T23:19:26.685Z,36.43
2016-02-27T23:20:26.672Z,36.43
2016-02-27T23:21:26.660Z,36.53
2016-02-27T23:22:26.631Z,36.33
2016-02-27T23:23:26.619Z,36.43
2016-02-27T23:24:26.589Z,36.24
2016-02-27T23:25:26.608Z,36.43
2016-02-27T23:26:26.563Z,36.43
2016-02-27T23:27:26.535Z,36.62
2016-02-27T23:28:26.522Z,36.53
2016-02-27T23:29:26.635Z,36.53
2016-02-27T23:30:26.513Z,36.82
2016-02-27T23:31:26.483Z,36.62
2016-02-27T23:32:26.455Z,36.43
2016-02-27T23:33:26.427Z,36.43
2016-02-27T23:34:26.413Z,36.43
2016-02-27T23:35:28.838Z,36.62
2016-02-27T23:36:26.387Z,36.62
2016-02-27T23:37:26.359Z,36.72
2016-02-27T23:38:26.346Z,36.54
2016-02-27T23:39:26.317Z,36.43
2016-02-27T23:40:26.320Z,36.62
2016-02-27T23:41:26.292Z,36.72
2016-02-27T23:42:26.263Z,36.62
2016-02-27T23:43:26.265Z,36.74
2016-02-27T23:44:26.253Z,36.64
2016-02-27T23:45:26.224Z,36.62
2016-02-27T23:46:26.211Z,36.54
2016-02-27T23:47:26.183Z,36.74
2016-02-27T23:48:26.170Z,36.54
2016-02-27T23:49:26.141Z,36.64
2016-02-27T23:50:26.128Z,36.45
2016-02-27T23:51:26.116Z,36.25
2016-02-27T23:52:26.087Z,36.64
2016-02-27T23:53:26.089Z,36.54
2016-02-27T23:54:26.061Z,36.64
2016-02-27T23:55:26.080Z,36.83
2016-02-27T23:56:26.035Z,36.64
2016-02-27T23:57:26.007Z,36.74
2016-02-27T23:58:25.977Z,37.02
2016-02-27T23:59:25.965Z,36.93
